»·PEaware :: UAL5285 KSFO-KPDX

UAL5285 :: KSFO-KPDX

FLIGHT INFORMATION

Flight Status: Arrived
Operator:
United Airlines
More flights by this operator :: More flights under this callsign
Pilot: Joseph V. (30107)
Aircraft: BOEING 737-800
(B738)
More flights by this aircraft type
Origin: KSFO San Francisco Intl
United States
Destination: KPDX Portland Intl
United States
More flights between these airports :: More routes between these airports
Route: +TRUKN2 GRTFL MACHU MOXEE TMBRS2
File this flight plan on PilotEdge
Remarks: First time flying on PilotEdge
Altitude:
(Current/Filed)
36,000ft
Speed:
(Current/Filed)
320kts
Departed: 25-Jun-20 09:31 PM
Arrived: 25-Jun-20 10:51 PM
Distance/Time
Traveled:
478nm/1:19
Distance/Time
To Go:
Arrived

Flight Plot

Page will automatically refresh every two minutes.


Map Options




Map Legend


Flown Route
Filed Route
Departure Airport
Arrival Airport
Navaid (VOR, NDB)
Fix

Horizontal Profiles

Position Reports

Time Latitude Longitude Heading Altitude Ground
Speed
25-Jun-20 20:37 37.618581 -122.391788 207 23ft 0kts
25-Jun-20 20:39 37.618581 -122.391788 207 23ft 0kts
25-Jun-20 20:39 37.618581 -122.391788 207 23ft 0kts
25-Jun-20 20:40 37.618581 -122.391788 207 23ft 0kts
25-Jun-20 20:41 37.618581 -122.391788 207 23ft 0kts
25-Jun-20 20:42 37.618581 -122.391788 207 23ft 0kts
25-Jun-20 20:43 37.618581 -122.391788 207 23ft 0kts
25-Jun-20 20:44 37.618581 -122.391788 207 23ft 0kts
25-Jun-20 20:45 37.618581 -122.391788 207 23ft 0kts
25-Jun-20 20:46 37.618581 -122.391788 207 23ft 0kts
25-Jun-20 20:48 37.618581 -122.391788 207 23ft 0kts
25-Jun-20 20:49 37.618581 -122.391788 207 23ft 0kts
25-Jun-20 20:50 37.618581 -122.391788 207 23ft 0kts
25-Jun-20 20:51 37.618581 -122.391788 207 23ft 0kts
25-Jun-20 20:52 37.618581 -122.391788 207 23ft 0kts
25-Jun-20 20:53 37.618581 -122.391788 207 23ft 0kts
25-Jun-20 20:54 37.618581 -122.391788 207 23ft 0kts
25-Jun-20 20:55 37.618581 -122.391788 207 23ft 0kts
25-Jun-20 20:56 37.618581 -122.391788 207 23ft 0kts
25-Jun-20 20:57 37.618581 -122.391788 207 23ft 0kts
25-Jun-20 20:58 37.618581 -122.391789 207 23ft 0kts
25-Jun-20 20:59 37.618581 -122.391788 207 23ft 0kts
25-Jun-20 21:00 37.618581 -122.391788 207 23ft 0kts
25-Jun-20 21:01 37.618581 -122.391788 207 23ft 0kts
25-Jun-20 21:02 37.618581 -122.391788 207 23ft 0kts
25-Jun-20 21:03 37.618581 -122.391788 207 23ft 0kts
25-Jun-20 21:04 37.618581 -122.391788 207 23ft 0kts
25-Jun-20 21:05 37.618581 -122.391788 207 23ft 0kts
25-Jun-20 21:06 37.618581 -122.391788 207 23ft 0kts
25-Jun-20 21:07 37.618581 -122.391788 207 23ft 0kts
25-Jun-20 21:08 37.618581 -122.391788 207 23ft 0kts
25-Jun-20 21:09 37.618581 -122.391788 207 23ft 0kts
25-Jun-20 21:10 37.618581 -122.391788 207 23ft 0kts
25-Jun-20 21:11 37.618581 -122.391788 207 23ft 0kts
25-Jun-20 21:12 37.618581 -122.391788 207 23ft 0kts
25-Jun-20 21:13 37.618581 -122.391788 207 23ft 0kts
25-Jun-20 21:14 37.618835 -122.391673 202 23ft 2kts
25-Jun-20 21:15 37.619308 -122.391425 252 23ft 1kts
25-Jun-20 21:16 37.619269 -122.391246 298 23ft 0kts
25-Jun-20 21:17 37.619269 -122.391246 298 23ft 0kts
25-Jun-20 21:18 37.619269 -122.391246 298 23ft 0kts
25-Jun-20 21:19 37.619269 -122.391246 298 23ft 0kts
25-Jun-20 21:20 37.620158 -122.392379 23 23ft 12kts
25-Jun-20 21:21 37.622017 -122.391196 28 23ft 0kts
25-Jun-20 21:22 37.622366 -122.388466 118 23ft 18kts
25-Jun-20 21:23 37.619896 -122.382594 118 23ft 22kts
25-Jun-20 21:24 37.618433 -122.379075 114 23ft 2kts
25-Jun-20 21:25 37.616356 -122.373141 117 23ft 24kts
25-Jun-20 21:26 37.613538 -122.367466 118 23ft 16kts
25-Jun-20 21:27 37.611774 -122.363335 117 23ft 3kts
25-Jun-20 21:28 37.610701 -122.360713 119 23ft 11kts
25-Jun-20 21:29 37.610561 -122.359691 77 23ft 7kts
25-Jun-20 21:30 37.618260 -122.373931 298 39ft 167kts
25-Jun-20 21:31 37.644711 -122.428379 327 2122ft 221kts
25-Jun-20 21:32 37.690829 -122.391878 95 4917ft 266kts
25-Jun-20 21:33 37.703932 -122.299648 76 8851ft 283kts
25-Jun-20 21:34 37.752782 -122.221070 17 11318ft 339kts
25-Jun-20 21:35 37.847315 -122.218083 358 14590ft 359kts
25-Jun-20 21:36 37.947609 -122.220713 358 17692ft 376kts
25-Jun-20 21:37 38.053665 -122.223532 358 20452ft 392kts
25-Jun-20 21:38 38.162533 -122.226431 358 20323ft 388kts
25-Jun-20 21:39 38.268471 -122.229261 358 21954ft 400kts
25-Jun-20 21:40 38.378239 -122.234244 355 22997ft 409kts
25-Jun-20 21:41 38.490539 -122.245874 355 23000ft 408kts
25-Jun-20 21:42 38.603490 -122.257647 355 24910ft 418kts
25-Jun-20 21:43 38.719835 -122.269785 355 26888ft 432kts
25-Jun-20 21:44 38.839490 -122.282299 355 28646ft 444kts
25-Jun-20 21:45 38.962127 -122.295165 355 30522ft 448kts
25-Jun-20 21:46 39.076263 -122.307179 355 32509ft 443kts
25-Jun-20 21:47 39.179644 -122.318093 355 34169ft 440kts
25-Jun-20 21:48 39.281996 -122.328929 355 35644ft 437kts
25-Jun-20 21:49 39.384648 -122.339830 355 35998ft 444kts
25-Jun-20 21:50 39.489821 -122.351032 355 35998ft 439kts
25-Jun-20 21:51 39.614556 -122.364366 355 35999ft 440kts
25-Jun-20 21:52 39.737697 -122.377577 355 35999ft 441kts
25-Jun-20 21:53 39.852182 -122.389902 355 35999ft 438kts
25-Jun-20 21:54 39.959509 -122.401495 355 36000ft 441kts
25-Jun-20 21:55 40.065609 -122.413032 355 35998ft 440kts
25-Jun-20 21:56 40.173758 -122.424802 355 36000ft 440kts
25-Jun-20 21:57 40.280378 -122.436388 355 35999ft 440kts
25-Jun-20 21:58 40.399710 -122.449428 355 36000ft 439kts
25-Jun-20 21:59 40.518362 -122.462450 355 35999ft 439kts
25-Jun-20 22:00 40.637988 -122.475629 355 35999ft 441kts
25-Jun-20 22:01 40.767646 -122.489966 355 35999ft 441kts
25-Jun-20 22:02 40.896754 -122.504300 355 35999ft 439kts
25-Jun-20 22:03 41.031078 -122.519268 355 35999ft 442kts
25-Jun-20 22:04 41.159322 -122.533614 355 35999ft 438kts
25-Jun-20 22:05 41.273266 -122.546424 355 35999ft 441kts
25-Jun-20 22:06 41.396506 -122.560321 355 35999ft 439kts
25-Jun-20 22:07 41.522233 -122.574542 355 35999ft 439kts
25-Jun-20 22:08 41.650253 -122.583704 357 36000ft 440kts
25-Jun-20 22:09 41.777091 -122.591855 357 36000ft 441kts
25-Jun-20 22:10 41.898308 -122.599748 357 35999ft 439kts
25-Jun-20 22:11 42.019906 -122.607715 357 35999ft 440kts
25-Jun-20 22:12 42.138376 -122.615512 357 36000ft 440kts
25-Jun-20 22:13 42.250330 -122.623053 357 35999ft 439kts
25-Jun-20 22:14 42.374252 -122.631283 357 35999ft 439kts
25-Jun-20 22:15 42.495222 -122.639366 357 35999ft 440kts
25-Jun-20 22:17 42.616066 -122.647479 357 35999ft 440kts
25-Jun-20 22:18 42.737023 -122.655647 356 36000ft 440kts
25-Jun-20 22:19 42.857169 -122.663786 356 36000ft 440kts
25-Jun-20 22:20 42.978831 -122.672114 356 35999ft 439kts
25-Jun-20 22:21 43.100668 -122.680463 356 35766ft 448kts
25-Jun-20 22:22 43.221727 -122.688733 356 35713ft 437kts
25-Jun-20 22:23 43.341752 -122.696968 356 35961ft 442kts
25-Jun-20 22:24 43.463972 -122.705408 356 35999ft 440kts
25-Jun-20 22:25 43.584170 -122.713721 356 36000ft 438kts
25-Jun-20 22:26 43.705735 -122.722144 356 36000ft 440kts
25-Jun-20 22:27 43.826279 -122.730523 356 35999ft 440kts
25-Jun-20 22:28 43.949113 -122.739104 356 33989ft 459kts
25-Jun-20 22:29 44.075424 -122.747962 356 30545ft 461kts
25-Jun-20 22:30 44.199067 -122.747366 3 27326ft 444kts
25-Jun-20 22:31 44.317222 -122.736520 3 24617ft 424kts
25-Jun-20 22:32 44.433872 -122.725131 3 21858ft 422kts
25-Jun-20 22:33 44.549120 -122.713750 3 19155ft 412kts
25-Jun-20 22:34 44.659249 -122.702802 3 17248ft 398kts
25-Jun-20 22:34 44.748151 -122.694042 3 15194ft 377kts
25-Jun-20 22:36 44.869695 -122.681716 3 12456ft 386kts
25-Jun-20 22:37 44.972585 -122.671225 3 10956ft 336kts
25-Jun-20 22:37 45.042993 -122.664009 3 10899ft 295kts
25-Jun-20 22:39 45.136847 -122.615982 34 9968ft 299kts
25-Jun-20 22:39 45.191393 -122.562238 34 9153ft 285kts
25-Jun-20 22:40 45.249388 -122.505016 34 7400ft 316kts
25-Jun-20 22:41 45.318508 -122.436707 34 6909ft 271kts
25-Jun-20 22:42 45.380230 -122.375675 34 5616ft 265kts
25-Jun-20 22:43 45.441575 -122.317552 18 3973ft 275kts
25-Jun-20 22:44 45.494009 -122.362813 299 2949ft 210kts
25-Jun-20 22:45 45.517208 -122.422253 299 2595ft 154kts
25-Jun-20 22:46 45.535885 -122.469860 299 1863ft 138kts
25-Jun-20 22:47 45.554167 -122.516486 299 1129ft 136kts
25-Jun-20 22:48 45.572047 -122.562557 300 447ft 134kts
25-Jun-20 22:49 45.586721 -122.599820 299 39ft 57kts
25-Jun-20 22:50 45.591355 -122.611663 299 39ft 26kts
25-Jun-20 22:51 45.593366 -122.612846 45 39ft 6kts
25-Jun-20 22:52 45.591658 -122.607686 120 39ft 20kts
25-Jun-20 22:53 45.591376 -122.601396 90 39ft 15kts
25-Jun-20 22:54 45.590307 -122.597717 206 39ft 2kts
25-Jun-20 22:55 45.590046 -122.597912 208 39ft 0kts
25-Jun-20 22:56 45.590046 -122.597912 208 39ft 0kts
25-Jun-20 22:57 45.590046 -122.597912 208 39ft 0kts
25-Jun-20 22:58 45.590046 -122.597912 208 39ft 0kts
25-Jun-20 22:59 45.590046 -122.597912 208 39ft 0kts
25-Jun-20 23:00 45.590046 -122.597912 208 39ft 0kts
25-Jun-20 23:01 45.590046 -122.597912 208 39ft 0kts

Navigation Log

Ident Type
Flight plan parsing failed, navigation log unavailable